createdAt,value
2018-09-08T00:00:33.794Z,986.18
2018-09-08T00:01:33.754Z,986.18
2018-09-08T00:02:33.717Z,986.19
2018-09-08T00:03:33.685Z,986.16
2018-09-08T00:04:33.637Z,986.16
2018-09-08T00:05:33.602Z,986.14
2018-09-08T00:06:33.567Z,986.14
2018-09-08T00:07:33.532Z,986.14
2018-09-08T00:08:33.498Z,986.12
2018-09-08T00:09:33.454Z,986.13
2018-09-08T00:10:33.414Z,986.14
2018-09-08T00:11:33.379Z,986.14
2018-09-08T00:12:33.342Z,986.14
2018-09-08T00:13:33.306Z,986.16
2018-09-08T00:14:33.269Z,986.13
2018-09-08T00:15:33.232Z,986.12
2018-09-08T00:16:33.187Z,986.15
2018-09-08T00:17:33.156Z,986.11
2018-09-08T00:18:33.121Z,986.14
2018-09-08T00:19:33.081Z,986.14
2018-09-08T00:20:33.044Z,986.11
2018-09-08T00:21:33.004Z,986.11
2018-09-08T00:22:32.965Z,986.13
2018-09-08T00:23:32.931Z,986.13
2018-09-08T00:24:32.892Z,986.10
2018-09-08T00:25:32.851Z,986.09
2018-09-08T00:26:32.815Z,986.09
2018-09-08T00:27:32.785Z,986.12
2018-09-08T00:28:32.744Z,986.14
2018-09-08T00:29:32.708Z,986.12
2018-09-08T00:30:32.664Z,986.13
2018-09-08T00:31:32.628Z,986.11
2018-09-08T00:32:32.594Z,986.16
2018-09-08T00:33:32.553Z,986.13
2018-09-08T00:34:32.512Z,986.15
2018-09-08T00:35:32.472Z,986.14
2018-09-08T00:36:32.441Z,986.17
2018-09-08T00:37:32.398Z,986.16
2018-09-08T00:38:32.442Z,986.18
2018-09-08T00:39:32.328Z,986.16
2018-09-08T00:40:32.293Z,986.14
2018-09-08T00:41:32.251Z,986.17
2018-09-08T00:42:32.211Z,986.14
2018-09-08T00:43:32.172Z,986.13
2018-09-08T00:44:32.134Z,986.13
2018-09-08T00:45:32.096Z,986.12
2018-09-08T00:46:32.066Z,986.11
2018-09-08T00:47:32.030Z,986.09
2018-09-08T00:48:31.982Z,986.14
2018-09-08T00:49:31.947Z,986.15
2018-09-08T00:50:31.916Z,986.17
2018-09-08T00:51:31.882Z,986.12
2018-09-08T00:52:31.837Z,986.10
2018-09-08T00:53:31.798Z,986.09
2018-09-08T00:54:31.757Z,986.11
2018-09-08T00:55:31.724Z,986.11
2018-09-08T00:56:31.678Z,986.12
2018-09-08T00:57:31.643Z,986.09
2018-09-08T00:58:31.606Z,986.14
2018-09-08T00:59:31.573Z,986.04
2018-09-08T01:00:31.544Z,986.09
2018-09-08T01:01:31.494Z,986.11
2018-09-08T01:02:31.453Z,986.09
2018-09-08T01:03:31.417Z,986.08
2018-09-08T01:04:31.407Z,986.06
2018-09-08T01:05:31.346Z,986.06
2018-09-08T01:06:31.306Z,986.06
2018-09-08T01:07:31.262Z,986.03
2018-09-08T01:08:31.253Z,986.08
2018-09-08T01:09:31.187Z,986.04
2018-09-08T01:10:31.157Z,986.04
2018-09-08T01:11:31.117Z,986.11
2018-09-08T01:12:31.081Z,986.05
2018-09-08T01:13:31.040Z,986.09
2018-09-08T01:14:31.000Z,986.04
2018-09-08T01:15:30.961Z,986.05
2018-09-08T01:16:30.928Z,986.05
2018-09-08T01:17:30.888Z,986.08
2018-09-08T01:18:30.851Z,986.10
2018-09-08T01:19:30.815Z,986.08
2018-09-08T01:20:30.770Z,986.07
2018-09-08T01:21:30.733Z,986.01
2018-09-08T01:22:30.697Z,986.03
2018-09-08T01:23:30.663Z,986.08
2018-09-08T01:24:30.625Z,986.07
2018-09-08T01:25:30.584Z,986.09
2018-09-08T01:26:30.543Z,986.08
2018-09-08T01:27:30.504Z,986.09
2018-09-08T01:28:30.467Z,986.11
2018-09-08T01:29:30.428Z,986.13
2018-09-08T01:30:30.395Z,986.09
2018-09-08T01:31:30.357Z,986.09
2018-09-08T01:32:30.323Z,986.08
2018-09-08T01:33:30.283Z,986.11
2018-09-08T01:34:30.245Z,986.15
2018-09-08T01:35:30.201Z,986.13
2018-09-08T01:36:30.168Z,986.10
2018-09-08T01:37:30.128Z,986.09
2018-09-08T01:38:30.087Z,986.08
2018-09-08T01:39:30.052Z,986.09
2018-09-08T01:40:30.012Z,986.11
2018-09-08T01:41:29.972Z,986.07
2018-09-08T01:42:29.935Z,986.10
2018-09-08T01:43:29.903Z,986.11
2018-09-08T01:44:29.866Z,986.10
2018-09-08T01:45:29.822Z,986.09
2018-09-08T01:46:29.798Z,986.14
2018-09-08T01:47:29.741Z,986.16
2018-09-08T01:48:29.709Z,986.10
2018-09-08T01:49:29.667Z,986.17
2018-09-08T01:50:29.634Z,986.18
2018-09-08T01:51:29.596Z,986.17
2018-09-08T01:52:29.553Z,986.16
2018-09-08T01:53:29.524Z,986.22
2018-09-08T01:54:29.480Z,986.12
2018-09-08T01:55:29.443Z,986.18
2018-09-08T01:56:29.408Z,986.17
2018-09-08T01:57:29.369Z,986.12
2018-09-08T01:58:29.330Z,986.19
2018-09-08T01:59:29.287Z,986.14
2018-09-08T02:00:29.256Z,986.14
2018-09-08T02:01:29.211Z,986.12
2018-09-08T02:02:29.176Z,986.10
2018-09-08T02:03:29.142Z,986.05
2018-09-08T02:04:29.101Z,986.09
2018-09-08T02:05:29.059Z,986.05
2018-09-08T02:06:29.018Z,986.06
2018-09-08T02:07:28.985Z,986.02
2018-09-08T02:08:28.952Z,986.03
2018-09-08T02:09:28.906Z,986.04
2018-09-08T02:10:28.866Z,986.04
2018-09-08T02:11:28.828Z,986.02
2018-09-08T02:12:28.794Z,986.01
2018-09-08T02:13:28.754Z,985.99
2018-09-08T02:14:28.717Z,986.02
2018-09-08T02:15:28.682Z,986.01
2018-09-08T02:16:28.636Z,985.95
2018-09-08T02:17:28.605Z,985.98
2018-09-08T02:18:28.583Z,986.00
2018-09-08T02:19:28.526Z,986.03
2018-09-08T02:20:28.492Z,986.03
2018-09-08T02:21:28.455Z,986.00
2018-09-08T02:22:28.408Z,986.00
2018-09-08T02:23:28.372Z,985.98
2018-09-08T02:24:28.337Z,986.01
2018-09-08T02:25:28.364Z,986.03
2018-09-08T02:26:28.259Z,986.00
2018-09-08T02:27:28.215Z,986.07
2018-09-08T02:28:28.179Z,986.01
2018-09-08T02:29:28.147Z,986.02
2018-09-08T02:30:28.106Z,986.01
2018-09-08T02:31:28.078Z,986.02
2018-09-08T02:32:28.034Z,985.99
2018-09-08T02:33:27.995Z,986.01
2018-09-08T02:34:27.950Z,986.01
2018-09-08T02:35:27.913Z,986.04
2018-09-08T02:36:27.872Z,985.99
2018-09-08T02:37:27.835Z,985.98
2018-09-08T02:38:27.804Z,986.00
2018-09-08T02:39:27.762Z,986.02
2018-09-08T02:40:27.725Z,985.99
2018-09-08T02:41:27.692Z,985.98
2018-09-08T02:42:27.648Z,985.99
2018-09-08T02:43:27.616Z,986.03
2018-09-08T02:44:27.579Z,986.02
2018-09-08T02:45:27.536Z,985.97
2018-09-08T02:46:27.493Z,985.96
2018-09-08T02:47:27.455Z,985.97
2018-09-08T02:48:27.419Z,986.01
2018-09-08T02:49:27.380Z,986.00
2018-09-08T02:50:27.346Z,986.04
2018-09-08T02:51:27.308Z,986.01
2018-09-08T02:52:27.268Z,986.02
2018-09-08T02:53:27.225Z,986.01
2018-09-08T02:54:27.188Z,985.99
2018-09-08T02:55:27.145Z,986.03
2018-09-08T02:56:27.114Z,986.03
2018-09-08T02:57:27.072Z,986.01
2018-09-08T02:58:27.033Z,985.99
2018-09-08T02:59:27.000Z,986.05
2018-09-08T03:00:26.960Z,986.09
2018-09-08T03:01:26.920Z,986.01
2018-09-08T03:02:26.881Z,986.07
2018-09-08T03:03:26.852Z,986.11
2018-09-08T03:04:26.816Z,986.11
2018-09-08T03:05:26.780Z,986.15
2018-09-08T03:06:26.729Z,986.12
2018-09-08T03:07:26.688Z,986.15
2018-09-08T03:08:26.651Z,986.09
2018-09-08T03:09:26.611Z,986.14
2018-09-08T03:10:26.576Z,986.17
2018-09-08T03:11:26.544Z,986.11
2018-09-08T03:12:26.497Z,986.18
2018-09-08T03:13:26.460Z,986.21
2018-09-08T03:14:26.424Z,986.15
2018-09-08T03:15:26.389Z,986.18
2018-09-08T03:16:26.355Z,986.16
2018-09-08T03:17:26.312Z,986.19
2018-09-08T03:18:26.267Z,986.19
2018-09-08T03:19:26.228Z,986.20
2018-09-08T03:20:26.191Z,986.16
2018-09-08T03:21:26.156Z,986.24
2018-09-08T03:22:26.119Z,986.26
2018-09-08T03:23:26.081Z,986.20
2018-09-08T03:24:26.042Z,986.20
2018-09-08T03:25:26.005Z,986.16
2018-09-08T03:26:25.963Z,986.25
2018-09-08T03:27:25.919Z,986.24
2018-09-08T03:28:25.890Z,986.21
2018-09-08T03:29:25.874Z,986.27
2018-09-08T03:30:25.812Z,986.27
2018-09-08T03:31:25.773Z,986.22
2018-09-08T03:32:25.730Z,986.22
2018-09-08T03:33:25.693Z,986.21
2018-09-08T03:34:25.659Z,986.21
2018-09-08T03:35:25.623Z,986.26
2018-09-08T03:36:25.586Z,986.23
2018-09-08T03:37:25.543Z,986.22
2018-09-08T03:38:25.502Z,986.23
2018-09-08T03:39:25.466Z,986.19
2018-09-08T03:40:25.426Z,986.19
2018-09-08T03:41:25.388Z,986.22
2018-09-08T03:42:25.354Z,986.22
2018-09-08T03:43:25.317Z,986.24
2018-09-08T03:44:25.271Z,986.19
2018-09-08T03:45:25.240Z,986.19
2018-09-08T03:46:25.197Z,986.27
2018-09-08T03:47:25.164Z,986.22
2018-09-08T03:48:25.124Z,986.25
2018-09-08T03:49:25.087Z,986.26
2018-09-08T03:50:25.045Z,986.24
2018-09-08T03:51:25.001Z,986.23
2018-09-08T03:52:24.964Z,986.25
2018-09-08T03:53:24.925Z,986.24
2018-09-08T03:54:24.893Z,986.26
2018-09-08T04:07:06.046Z,986.35
2018-09-08T04:07:56.882Z,986.36
2018-09-08T04:08:56.862Z,986.36
2018-09-08T04:09:56.811Z,986.36
2018-09-08T04:10:56.766Z,986.37
2018-09-08T04:11:56.781Z,986.38
2018-09-08T04:12:56.685Z,986.38
2018-09-08T04:13:56.639Z,986.34
2018-09-08T04:14:56.607Z,986.38
2018-09-08T04:15:56.563Z,986.38
2018-09-08T04:16:56.528Z,986.41
2018-09-08T04:17:56.483Z,986.39
2018-09-08T04:18:56.444Z,986.41
2018-09-08T04:19:56.398Z,986.44
2018-09-08T04:20:56.362Z,986.44
2018-09-08T04:21:56.325Z,986.45
2018-09-08T04:22:56.290Z,986.50
2018-09-08T04:23:56.256Z,986.47
2018-09-08T04:24:56.210Z,986.47
2018-09-08T04:25:56.168Z,986.46
2018-09-08T04:26:56.135Z,986.50
2018-09-08T04:27:56.112Z,986.50
2018-09-08T04:28:56.058Z,986.42
2018-09-08T04:29:56.018Z,986.45
2018-09-08T04:30:55.979Z,986.45
2018-09-08T04:31:55.932Z,986.47
2018-09-08T04:32:55.893Z,986.52
2018-09-08T04:33:55.857Z,986.47
2018-09-08T04:34:55.822Z,986.52
2018-09-08T04:35:55.797Z,986.51
2018-09-08T04:36:55.746Z,986.46
2018-09-08T04:37:55.704Z,986.45
2018-09-08T04:38:55.670Z,986.44
2018-09-08T04:39:55.628Z,986.42
2018-09-08T04:40:55.597Z,986.42
2018-09-08T04:41:55.548Z,986.49
2018-09-08T04:42:55.516Z,986.47
2018-09-08T04:43:55.477Z,986.48
2018-09-08T04:44:55.439Z,986.49
2018-09-08T04:45:55.396Z,986.47
2018-09-08T04:46:55.358Z,986.44
2018-09-08T04:47:55.320Z,986.47
2018-09-08T04:48:55.287Z,986.48
2018-09-08T04:49:55.242Z,986.45
2018-09-08T04:50:55.205Z,986.53
2018-09-08T04:51:55.166Z,986.47
2018-09-08T04:52:55.124Z,986.41
2018-09-08T04:53:55.090Z,986.40
2018-09-08T04:54:55.054Z,986.42
2018-09-08T04:55:55.014Z,986.42
2018-09-08T04:56:54.976Z,986.41
2018-09-08T04:57:54.939Z,986.47
2018-09-08T04:58:54.895Z,986.41
2018-09-08T04:59:54.857Z,986.44
2018-09-08T05:00:54.822Z,986.47
2018-09-08T05:01:54.783Z,986.51
2018-09-08T05:02:54.747Z,986.52
2018-09-08T05:03:54.703Z,986.49
2018-09-08T05:04:54.670Z,986.54
2018-09-08T05:05:54.627Z,986.55
2018-09-08T05:06:54.597Z,986.58
2018-09-08T05:07:54.558Z,986.63
2018-09-08T05:08:54.575Z,986.64
2018-09-08T05:09:54.476Z,986.63
2018-09-08T05:10:54.442Z,986.71
2018-09-08T05:11:54.402Z,986.74
2018-09-08T05:12:54.359Z,986.71
2018-09-08T05:13:54.329Z,986.72
2018-09-08T05:14:54.298Z,986.69
2018-09-08T05:15:54.249Z,986.77
2018-09-08T05:16:54.211Z,986.76
2018-09-08T05:17:54.168Z,986.78
2018-09-08T05:18:54.133Z,986.75
2018-09-08T05:19:54.097Z,986.78
2018-09-08T05:20:54.063Z,986.80
2018-09-08T05:21:54.018Z,986.79
2018-09-08T05:22:53.979Z,986.79
2018-09-08T05:23:53.938Z,986.83
2018-09-08T05:24:53.902Z,986.80
2018-09-08T05:25:53.865Z,986.82
2018-09-08T05:26:53.826Z,986.79
2018-09-08T05:27:53.791Z,986.82
2018-09-08T05:28:53.758Z,986.84
2018-09-08T05:29:53.713Z,986.82
2018-09-08T05:30:53.675Z,986.86
2018-09-08T05:31:53.631Z,986.84
2018-09-08T05:32:53.600Z,986.88
2018-09-08T05:33:53.560Z,986.90
2018-09-08T05:34:53.572Z,986.92
2018-09-08T05:35:53.479Z,986.93
2018-09-08T05:36:53.445Z,986.95
2018-09-08T05:37:53.411Z,986.94
2018-09-08T05:38:53.376Z,986.90
2018-09-08T05:39:53.335Z,986.88
2018-09-08T05:40:53.302Z,986.86
2018-09-08T05:41:53.255Z,986.86
2018-09-08T05:42:53.232Z,986.82
2018-09-08T05:43:53.178Z,986.87
2018-09-08T05:44:53.144Z,986.86
2018-09-08T05:45:53.102Z,986.85
2018-09-08T05:46:53.065Z,986.84
2018-09-08T05:47:53.028Z,986.89
2018-09-08T05:48:52.998Z,986.87
2018-09-08T05:49:52.951Z,986.94
2018-09-08T05:50:52.921Z,986.89
2018-09-08T05:51:52.880Z,986.88
2018-09-08T05:52:52.840Z,986.88
2018-09-08T05:53:52.801Z,986.88
2018-09-08T05:54:52.761Z,986.89
2018-09-08T05:55:52.719Z,986.90
2018-09-08T05:56:52.680Z,986.89
2018-09-08T05:57:52.651Z,986.89
2018-09-08T05:58:52.611Z,986.92
2018-09-08T05:59:52.583Z,986.91
2018-09-08T06:00:52.540Z,986.88
2018-09-08T06:01:52.500Z,986.90
2018-09-08T06:02:52.458Z,986.91
2018-09-08T06:03:52.421Z,986.95
2018-09-08T06:04:52.390Z,986.90
2018-09-08T06:05:52.347Z,986.93
2018-09-08T06:06:52.306Z,986.91
2018-09-08T06:07:52.269Z,986.95
2018-09-08T06:08:52.233Z,986.92
2018-09-08T06:09:52.197Z,986.93
2018-09-08T06:10:52.158Z,986.93
2018-09-08T06:11:52.121Z,986.93
2018-09-08T06:12:52.080Z,986.95
2018-09-08T06:13:52.044Z,987.00
2018-09-08T06:14:52.008Z,987.03
2018-09-08T06:15:51.980Z,987.02
2018-09-08T06:16:51.939Z,986.97
2018-09-08T06:17:51.896Z,987.02
2018-09-08T06:18:51.859Z,986.99
2018-09-08T06:19:51.818Z,987.03
2018-09-08T06:20:51.786Z,987.05
2018-09-08T06:21:51.755Z,987.08
2018-09-08T06:22:53.556Z,987.09
2018-09-08T06:23:51.670Z,987.06
2018-09-08T06:24:51.632Z,987.11
2018-09-08T06:25:51.597Z,987.10
2018-09-08T06:26:51.563Z,987.14
2018-09-08T06:27:51.526Z,987.18
2018-09-08T06:28:51.489Z,987.12
2018-09-08T06:29:51.452Z,987.16
2018-09-08T06:30:51.408Z,987.13
2018-09-08T06:31:51.447Z,987.14
2018-09-08T06:32:51.331Z,987.14
2018-09-08T06:33:51.379Z,987.12
2018-09-08T06:34:51.263Z,987.11
2018-09-08T06:35:51.227Z,987.15
2018-09-08T06:36:51.186Z,987.17
2018-09-08T06:37:51.151Z,987.15
2018-09-08T06:38:51.118Z,987.18
2018-09-08T06:39:51.077Z,987.17
2018-09-08T06:40:51.039Z,987.25
2018-09-08T06:41:51.003Z,987.19
2018-09-08T06:42:50.966Z,987.20
2018-09-08T06:43:50.928Z,987.22
2018-09-08T06:44:50.924Z,987.18
2018-09-08T06:45:50.851Z,987.25
2018-09-08T06:46:50.817Z,987.23
2018-09-08T06:47:50.783Z,987.28
2018-09-08T06:48:50.754Z,987.24
2018-09-08T06:49:50.706Z,987.26
2018-09-08T06:50:50.676Z,987.26
2018-09-08T06:51:50.633Z,987.32
2018-09-08T06:52:50.598Z,987.30
2018-09-08T06:53:50.561Z,987.29
2018-09-08T06:54:50.522Z,987.32
2018-09-08T06:55:50.486Z,987.26
2018-09-08T06:56:50.451Z,987.26
2018-09-08T06:57:50.418Z,987.26
2018-09-08T06:58:50.375Z,987.29
2018-09-08T06:59:50.339Z,987.29
2018-09-08T07:00:50.303Z,987.29
2018-09-08T07:01:50.268Z,987.28
2018-09-08T07:02:50.231Z,987.31
2018-09-08T07:03:50.187Z,987.33
2018-09-08T07:04:50.150Z,987.30
2018-09-08T07:05:50.119Z,987.34
2018-09-08T07:06:50.084Z,987.31
2018-09-08T07:07:50.053Z,987.30
2018-09-08T07:08:50.003Z,987.33
2018-09-08T07:09:49.976Z,987.31
2018-09-08T07:10:49.935Z,987.30
2018-09-08T07:11:49.904Z,987.29
2018-09-08T07:12:49.863Z,987.26
2018-09-08T07:13:50.196Z,987.23
2018-09-08T07:14:49.844Z,987.25
2018-09-08T07:15:49.753Z,987.24
2018-09-08T07:16:49.710Z,987.28
2018-09-08T07:17:49.683Z,987.31
2018-09-08T07:18:49.642Z,987.31
2018-09-08T07:19:49.611Z,987.32
2018-09-08T07:20:49.578Z,987.32
2018-09-08T07:21:49.534Z,987.36
2018-09-08T07:22:49.509Z,987.34
2018-09-08T07:23:49.459Z,987.32
2018-09-08T07:24:49.436Z,987.31
2018-09-08T07:25:49.389Z,987.34
2018-09-08T07:26:49.351Z,987.28
2018-09-08T07:27:49.310Z,987.29
2018-09-08T07:28:49.279Z,987.33
2018-09-08T07:29:49.246Z,987.29
2018-09-08T07:30:49.216Z,987.28
2018-09-08T07:31:49.173Z,987.28
2018-09-08T07:32:49.137Z,987.28
2018-09-08T07:33:49.099Z,987.37
2018-09-08T07:34:49.066Z,987.33
2018-09-08T07:35:49.024Z,987.42
2018-09-08T07:36:48.992Z,987.39
2018-09-08T07:37:48.960Z,987.43
2018-09-08T07:38:48.924Z,987.41
2018-09-08T07:39:48.889Z,987.45
2018-09-08T07:40:48.849Z,987.41
2018-09-08T07:41:48.809Z,987.41
2018-09-08T07:42:48.775Z,987.40
2018-09-08T07:43:48.740Z,987.43
2018-09-08T07:44:48.704Z,987.38
2018-09-08T07:45:48.688Z,987.38
2018-09-08T07:46:48.630Z,987.40
2018-09-08T07:47:48.594Z,987.42
2018-09-08T07:48:48.555Z,987.41
2018-09-08T07:49:48.521Z,987.48
2018-09-08T07:50:48.490Z,987.44
2018-09-08T07:51:48.455Z,987.45
2018-09-08T07:52:48.421Z,987.45
2018-09-08T07:53:48.450Z,987.47
2018-09-08T07:54:48.344Z,987.51
2018-09-08T07:55:48.308Z,987.51
2018-09-08T07:56:48.277Z,987.51
2018-09-08T07:57:48.242Z,987.55
2018-09-08T07:58:48.206Z,987.57
2018-09-08T07:59:48.162Z,987.63
2018-09-08T08:00:48.128Z,987.55
2018-09-08T08:01:48.095Z,987.59
2018-09-08T08:02:48.062Z,987.57
2018-09-08T08:03:48.033Z,987.63
2018-09-08T08:04:47.990Z,987.61
2018-09-08T08:05:47.957Z,987.57
2018-09-08T08:06:47.948Z,987.60
2018-09-08T08:07:47.879Z,987.56
2018-09-08T08:08:47.842Z,987.56
2018-09-08T08:09:47.811Z,987.65
2018-09-08T08:10:47.777Z,987.52
2018-09-08T08:11:47.744Z,987.51
2018-09-08T08:12:47.702Z,987.52
2018-09-08T08:13:47.669Z,987.58
2018-09-08T08:14:47.633Z,987.54
2018-09-08T08:15:47.602Z,987.55
2018-09-08T08:16:47.564Z,987.57
2018-09-08T08:17:47.529Z,987.59
2018-09-08T08:18:47.490Z,987.56
2018-09-08T08:19:47.451Z,987.58
2018-09-08T08:20:47.422Z,987.64
2018-09-08T08:21:47.385Z,987.60
2018-09-08T08:22:47.350Z,987.58
2018-09-08T08:23:47.324Z,987.52
2018-09-08T08:24:47.281Z,987.56
2018-09-08T08:25:47.251Z,987.55
2018-09-08T08:26:47.207Z,987.53
2018-09-08T08:27:47.171Z,987.55
2018-09-08T08:28:47.141Z,987.58
2018-09-08T08:29:47.107Z,987.58
2018-09-08T08:30:47.068Z,987.61
2018-09-08T08:31:47.127Z,987.52
2018-09-08T08:32:47.002Z,987.57
2018-09-08T08:33:46.976Z,987.51
2018-09-08T08:34:46.930Z,987.53
2018-09-08T08:35:46.898Z,987.59
2018-09-08T08:36:46.866Z,987.60
2018-09-08T08:37:46.828Z,987.57
2018-09-08T08:38:46.793Z,987.63
2018-09-08T08:39:46.851Z,987.64
2018-09-08T08:40:46.715Z,987.62
2018-09-08T08:41:46.681Z,987.56
2018-09-08T08:42:46.648Z,987.55
2018-09-08T08:43:46.626Z,987.58
2018-09-08T08:44:46.585Z,987.56
2018-09-08T08:45:46.556Z,987.59
2018-09-08T08:46:46.517Z,987.55
2018-09-08T08:47:46.538Z,987.57
2018-09-08T08:48:46.440Z,987.64
2018-09-08T08:49:46.408Z,987.58
2018-09-08T08:50:46.372Z,987.62
2018-09-08T08:51:46.329Z,987.63
2018-09-08T08:52:46.299Z,987.66
2018-09-08T08:53:46.265Z,987.64
2018-09-08T08:54:46.233Z,987.65
2018-09-08T08:55:46.260Z,987.67
2018-09-08T08:56:46.170Z,987.61
2018-09-08T08:57:46.124Z,987.67
2018-09-08T08:58:46.091Z,987.67
2018-09-08T08:59:46.049Z,987.67
2018-09-08T09:00:46.028Z,987.68
2018-09-08T09:01:45.985Z,987.71
2018-09-08T09:02:45.952Z,987.70
2018-09-08T09:03:45.910Z,987.71
2018-09-08T09:04:45.878Z,987.69
2018-09-08T09:05:45.846Z,987.68
2018-09-08T09:06:45.813Z,987.73
2018-09-08T09:07:45.797Z,987.68
2018-09-08T09:08:46.058Z,987.73
2018-09-08T09:09:45.707Z,987.70
2018-09-08T09:10:45.674Z,987.72
2018-09-08T09:11:45.637Z,987.71
2018-09-08T09:12:45.642Z,987.68
2018-09-08T09:13:45.572Z,987.76
2018-09-08T09:14:45.552Z,987.79
2018-09-08T09:15:45.502Z,987.76
2018-09-08T09:16:45.460Z,987.75
2018-09-08T09:17:45.437Z,987.72
2018-09-08T09:18:45.703Z,987.71
2018-09-08T09:19:45.366Z,987.71
2018-09-08T09:20:45.334Z,987.69
2018-09-08T09:21:45.297Z,987.63
2018-09-08T09:22:45.257Z,987.66
2018-09-08T09:23:45.219Z,987.69
2018-09-08T09:24:45.472Z,987.66
2018-09-08T09:25:45.151Z,987.66
2018-09-08T09:26:45.122Z,987.65
2018-09-08T09:27:45.085Z,987.65
2018-09-08T09:28:45.055Z,987.58
2018-09-08T09:29:45.020Z,987.64
2018-09-08T09:30:44.981Z,987.61
2018-09-08T09:31:44.943Z,987.64
2018-09-08T09:32:44.918Z,987.65
2018-09-08T09:33:44.880Z,987.65
2018-09-08T09:34:44.848Z,987.69
2018-09-08T09:35:44.805Z,987.60
2018-09-08T09:36:44.770Z,987.59
2018-09-08T09:37:44.738Z,987.62
2018-09-08T09:38:44.707Z,987.57
2018-09-08T09:39:44.681Z,987.65
2018-09-08T09:40:44.638Z,987.61
2018-09-08T09:41:44.604Z,987.56
2018-09-08T09:42:44.566Z,987.48
2018-09-08T09:43:44.535Z,987.58
2018-09-08T09:44:44.496Z,987.49
2018-09-08T09:45:44.467Z,987.63
2018-09-08T09:46:44.433Z,987.68
2018-09-08T09:47:44.399Z,987.72
2018-09-08T09:48:44.365Z,987.71
2018-09-08T09:49:44.327Z,987.63
2018-09-08T09:50:44.300Z,987.61
2018-09-08T09:51:44.269Z,987.78
2018-09-08T09:52:44.233Z,987.64
2018-09-08T09:53:44.194Z,987.70
2018-09-08T09:54:44.160Z,987.67
2018-09-08T09:55:44.121Z,987.70
2018-09-08T09:56:44.089Z,987.80
2018-09-08T09:57:44.053Z,987.76
2018-09-08T09:58:44.020Z,987.72
2018-09-08T09:59:43.990Z,987.85
2018-09-08T10:00:43.956Z,987.75
2018-09-08T10:01:43.920Z,987.65
2018-09-08T10:02:43.884Z,987.73
2018-09-08T10:03:43.849Z,987.87
2018-09-08T10:04:43.820Z,987.77
2018-09-08T10:05:43.783Z,987.75
2018-09-08T10:06:43.763Z,987.87
2018-09-08T10:21:10.552Z,987.70
2018-09-08T10:22:10.445Z,987.57
2018-09-08T10:23:10.445Z,987.67
2018-09-08T10:24:10.464Z,987.57
2018-09-08T10:25:10.338Z,987.63
2018-09-08T10:26:10.299Z,987.74
2018-09-08T10:27:10.256Z,987.70
2018-09-08T10:28:10.214Z,987.69
2018-09-08T10:29:10.177Z,987.69
2018-09-08T10:30:10.145Z,987.68
2018-09-08T10:31:10.108Z,987.71
2018-09-08T10:32:10.423Z,987.71
2018-09-08T10:33:10.040Z,987.80
2018-09-08T10:34:10.023Z,987.73
2018-09-08T10:36:57.158Z,987.68
2018-09-08T10:37:42.112Z,987.77
2018-09-08T10:38:41.948Z,987.76
2018-09-08T10:39:41.965Z,987.76
2018-09-08T10:40:41.880Z,987.67
2018-09-08T10:41:41.838Z,987.63
2018-09-08T10:42:41.820Z,987.70
2018-09-08T10:43:41.774Z,987.72
2018-09-08T10:44:41.834Z,987.61
2018-09-08T10:45:41.704Z,987.61
2018-09-08T10:46:41.672Z,987.59
2018-09-08T10:47:41.640Z,987.63
2018-09-08T10:48:41.619Z,987.62
2018-09-08T10:49:41.574Z,987.65
2018-09-08T10:50:41.542Z,987.62
2018-09-08T10:51:41.501Z,987.62
2018-09-08T10:52:41.478Z,987.61
2018-09-08T10:53:41.431Z,987.64
2018-09-08T10:54:41.399Z,987.66
2018-09-08T10:55:41.367Z,987.59
2018-09-08T10:56:41.329Z,987.66
2018-09-08T10:57:41.300Z,987.59
2018-09-08T10:58:41.268Z,987.67
2018-09-08T10:59:41.228Z,987.66
2018-09-08T11:00:41.191Z,987.58
2018-09-08T11:01:41.297Z,987.68
2018-09-08T11:02:41.345Z,987.69
2018-09-08T11:03:41.095Z,987.67
2018-09-08T11:04:41.064Z,987.71
2018-09-08T11:05:41.030Z,987.70
2018-09-08T11:06:40.998Z,987.65
2018-09-08T11:07:40.961Z,987.66
2018-09-08T11:08:40.926Z,987.61
2018-09-08T11:09:40.897Z,987.64
2018-09-08T11:10:40.903Z,987.63
2018-09-08T11:11:40.836Z,987.55
2018-09-08T11:12:40.795Z,987.54
2018-09-08T11:13:40.753Z,987.51
2018-09-08T11:14:40.723Z,987.51
2018-09-08T11:15:40.837Z,987.50
2018-09-08T11:16:40.658Z,987.47
2018-09-08T11:17:40.620Z,987.42
2018-09-08T11:18:40.772Z,987.42
2018-09-08T11:19:40.557Z,987.46
2018-09-08T11:20:40.525Z,987.52
2018-09-08T11:21:40.625Z,987.45
2018-09-08T11:22:40.454Z,987.48
2018-09-08T11:23:40.421Z,987.44
2018-09-08T11:24:40.396Z,987.43
2018-09-08T11:25:40.355Z,987.43
2018-09-08T11:26:40.319Z,987.41
2018-09-08T11:27:40.287Z,987.40
2018-09-08T11:28:40.254Z,987.47
2018-09-08T11:29:40.222Z,987.33
2018-09-08T11:30:40.260Z,987.34
2018-09-08T11:31:40.155Z,987.33
2018-09-08T11:32:40.118Z,987.42
2018-09-08T11:33:40.094Z,987.36
2018-09-08T11:34:40.063Z,987.41
2018-09-08T11:35:40.024Z,987.43
2018-09-08T11:36:39.994Z,987.42
2018-09-08T11:37:39.954Z,987.42
2018-09-08T11:38:39.923Z,987.39
2018-09-08T11:39:39.890Z,987.43
2018-09-08T11:40:39.855Z,987.47
2018-09-08T11:41:39.834Z,987.46
2018-09-08T11:42:39.792Z,987.47
2018-09-08T11:43:39.760Z,987.47
2018-09-08T11:44:39.781Z,987.45
2018-09-08T11:45:39.690Z,987.42
2018-09-08T11:46:39.661Z,987.45
2018-09-08T11:47:39.628Z,987.43
2018-09-08T11:48:39.598Z,987.46
2018-09-08T11:49:39.647Z,987.43
2018-09-08T11:50:39.527Z,987.48
2018-09-08T11:51:39.496Z,987.46
2018-09-08T11:52:39.461Z,987.47
2018-09-08T11:53:39.432Z,987.42
2018-09-08T11:54:39.397Z,987.40
2018-09-08T11:55:39.375Z,987.42
2018-09-08T11:56:39.335Z,987.46
2018-09-08T11:57:39.303Z,987.45
2018-09-08T11:58:39.261Z,987.43
2018-09-08T11:59:39.285Z,987.42
2018-09-08T12:00:39.199Z,987.43
2018-09-08T12:01:39.170Z,987.40
2018-09-08T12:02:39.134Z,987.40
2018-09-08T12:03:39.099Z,987.32
2018-09-08T12:04:39.068Z,987.35
2018-09-08T12:05:39.037Z,987.40
2018-09-08T12:06:39.006Z,987.37
2018-09-08T12:07:38.971Z,987.33
2018-09-08T12:08:38.939Z,987.35
2018-09-08T12:09:38.904Z,987.35
2018-09-08T12:10:38.876Z,987.28
2018-09-08T12:11:38.838Z,987.25
2018-09-08T12:12:38.804Z,987.25
2018-09-08T12:13:38.773Z,987.22
2018-09-08T12:14:38.754Z,987.18
2018-09-08T12:15:38.711Z,987.17
2018-09-08T12:16:38.677Z,987.18
2018-09-08T12:17:38.640Z,987.15
2018-09-08T12:18:38.609Z,987.13
2018-09-08T12:19:38.578Z,987.19
2018-09-08T12:20:38.550Z,987.15
2018-09-08T12:21:38.510Z,987.13
2018-09-08T12:22:38.477Z,987.13
2018-09-08T12:23:38.447Z,987.16
2018-09-08T12:24:38.413Z,987.14
2018-09-08T12:25:38.382Z,987.15
2018-09-08T12:26:38.350Z,987.16
2018-09-08T12:27:38.319Z,987.15
2018-09-08T12:28:38.285Z,987.14
2018-09-08T12:29:38.249Z,987.15
2018-09-08T12:30:38.388Z,987.14
2018-09-08T12:31:38.181Z,987.17
2018-09-08T12:32:38.150Z,987.16
2018-09-08T12:33:38.121Z,987.18
2018-09-08T12:34:38.087Z,987.11
2018-09-08T12:35:38.055Z,987.12
2018-09-08T12:36:38.019Z,987.12
2018-09-08T12:37:37.994Z,987.14
2018-09-08T12:38:37.969Z,987.19
2018-09-08T12:39:37.937Z,987.17
2018-09-08T12:40:37.899Z,987.13
2018-09-08T12:41:37.856Z,987.16
2018-09-08T12:42:37.825Z,987.18
2018-09-08T12:43:37.795Z,987.14
2018-09-08T12:44:37.759Z,987.13
2018-09-08T12:45:37.733Z,987.10
2018-09-08T12:46:37.696Z,987.14
2018-09-08T12:47:37.671Z,987.11
2018-09-08T12:48:37.636Z,987.09
2018-09-08T12:49:37.597Z,987.09
2018-09-08T12:50:37.570Z,987.08
2018-09-08T12:51:37.537Z,987.05
2018-09-08T12:52:37.509Z,987.02
2018-09-08T12:53:37.504Z,987.02
2018-09-08T12:54:37.438Z,987.09